sensor_id;sensor_type;location;lat;lon;timestamp;P1;durP1;ratioP1;P2;durP2;ratioP2
11791;SDS011;5953;52.372;9.918;2023-04-06T00:01:56;13.43;;;9.73;;
11791;SDS011;5953;52.372;9.918;2023-04-06T00:04:24;11.20;;;10.00;;
11791;SDS011;5953;52.372;9.918;2023-04-06T00:06:52;11.57;;;10.23;;
11791;SDS011;5953;52.372;9.918;2023-04-06T00:09:22;11.23;;;9.90;;
11791;SDS011;5953;52.372;9.918;2023-04-06T00:11:49;10.43;;;9.47;;
11791;SDS011;5953;52.372;9.918;2023-04-06T00:14:17;13.20;;;10.30;;
11791;SDS011;5953;52.372;9.918;2023-04-06T00:16:45;10.70;;;9.60;;
11791;SDS011;5953;52.372;9.918;2023-04-06T00:19:13;11.53;;;8.93;;
11791;SDS011;5953;52.372;9.918;2023-04-06T00:21:44;13.50;;;8.67;;
11791;SDS011;5953;52.372;9.918;2023-04-06T00:24:11;11.17;;;9.00;;
11791;SDS011;5953;52.372;9.918;2023-04-06T00:26:41;9.00;;;8.10;;
11791;SDS011;5953;52.372;9.918;2023-04-06T00:29:08;10.77;;;9.67;;
11791;SDS011;5953;52.372;9.918;2023-04-06T00:31:36;11.93;;;9.77;;
11791;SDS011;5953;52.372;9.918;2023-04-06T00:34:05;11.07;;;9.00;;
11791;SDS011;5953;52.372;9.918;2023-04-06T00:36:33;10.30;;;9.27;;
11791;SDS011;5953;52.372;9.918;2023-04-06T00:39:01;12.33;;;9.07;;
11791;SDS011;5953;52.372;9.918;2023-04-06T00:41:29;12.17;;;8.83;;
11791;SDS011;5953;52.372;9.918;2023-04-06T00:43:58;9.73;;;8.60;;
11791;SDS011;5953;52.372;9.918;2023-04-06T00:46:26;10.53;;;8.83;;
11791;SDS011;5953;52.372;9.918;2023-04-06T00:48:54;10.57;;;8.33;;
11791;SDS011;5953;52.372;9.918;2023-04-06T00:51:22;9.73;;;8.70;;
11791;SDS011;5953;52.372;9.918;2023-04-06T00:53:51;9.83;;;8.83;;
11791;SDS011;5953;52.372;9.918;2023-04-06T00:56:19;10.30;;;9.17;;
11791;SDS011;5953;52.372;9.918;2023-04-06T00:58:47;10.33;;;8.60;;
11791;SDS011;5953;52.372;9.918;2023-04-06T01:01:16;10.07;;;9.07;;
11791;SDS011;5953;52.372;9.918;2023-04-06T01:03:44;10.37;;;8.87;;
11791;SDS011;5953;52.372;9.918;2023-04-06T01:06:15;10.70;;;9.60;;
11791;SDS011;5953;52.372;9.918;2023-04-06T01:08:43;10.70;;;8.80;;
11791;SDS011;5953;52.372;9.918;2023-04-06T01:11:11;9.93;;;8.83;;
11791;SDS011;5953;52.372;9.918;2023-04-06T01:13:38;9.50;;;8.47;;
11791;SDS011;5953;52.372;9.918;2023-04-06T01:16:06;12.20;;;10.17;;
11791;SDS011;5953;52.372;9.918;2023-04-06T01:18:37;13.13;;;9.70;;
11791;SDS011;5953;52.372;9.918;2023-04-06T01:21:05;23.77;;;9.87;;
11791;SDS011;5953;52.372;9.918;2023-04-06T01:23:36;11.83;;;10.03;;
11791;SDS011;5953;52.372;9.918;2023-04-06T01:26:04;11.13;;;9.10;;
11791;SDS011;5953;52.372;9.918;2023-04-06T01:28:32;11.07;;;8.97;;
11791;SDS011;5953;52.372;9.918;2023-04-06T01:30:59;10.47;;;9.43;;
11791;SDS011;5953;52.372;9.918;2023-04-06T01:33:27;10.27;;;9.27;;
11791;SDS011;5953;52.372;9.918;2023-04-06T01:35:55;15.70;;;9.00;;
11791;SDS011;5953;52.372;9.918;2023-04-06T01:38:23;12.83;;;9.67;;
11791;SDS011;5953;52.372;9.918;2023-04-06T01:40:53;12.80;;;8.87;;
11791;SDS011;5953;52.372;9.918;2023-04-06T01:43:21;10.67;;;8.93;;
11791;SDS011;5953;52.372;9.918;2023-04-06T01:45:49;12.80;;;9.47;;
11791;SDS011;5953;52.372;9.918;2023-04-06T01:48:17;13.57;;;10.00;;
11791;SDS011;5953;52.372;9.918;2023-04-06T01:50:45;12.17;;;9.27;;
11791;SDS011;5953;52.372;9.918;2023-04-06T01:53:12;10.90;;;9.30;;
11791;SDS011;5953;52.372;9.918;2023-04-06T01:55:40;10.40;;;9.30;;
11791;SDS011;5953;52.372;9.918;2023-04-06T01:58:10;14.20;;;9.63;;
11791;SDS011;5953;52.372;9.918;2023-04-06T02:00:37;10.50;;;9.20;;
11791;SDS011;5953;52.372;9.918;2023-04-06T02:03:05;13.00;;;10.10;;
11791;SDS011;5953;52.372;9.918;2023-04-06T02:05:34;10.13;;;8.97;;
11791;SDS011;5953;52.372;9.918;2023-04-06T02:08:04;12.97;;;9.93;;
11791;SDS011;5953;52.372;9.918;2023-04-06T02:10:32;10.13;;;9.13;;
11791;SDS011;5953;52.372;9.918;2023-04-06T02:13:00;10.73;;;9.10;;
11791;SDS011;5953;52.372;9.918;2023-04-06T02:15:30;12.50;;;9.23;;
11791;SDS011;5953;52.372;9.918;2023-04-06T02:17:58;11.10;;;8.87;;
11791;SDS011;5953;52.372;9.918;2023-04-06T02:20:26;12.20;;;9.50;;
11791;SDS011;5953;52.372;9.918;2023-04-06T02:22:56;10.07;;;9.07;;
11791;SDS011;5953;52.372;9.918;2023-04-06T02:25:26;12.20;;;9.23;;
11791;SDS011;5953;52.372;9.918;2023-04-06T02:27:54;10.47;;;9.20;;
11791;SDS011;5953;52.372;9.918;2023-04-06T02:30:22;11.80;;;8.97;;
11791;SDS011;5953;52.372;9.918;2023-04-06T02:32:51;11.03;;;9.83;;
11791;SDS011;5953;52.372;9.918;2023-04-06T02:35:19;10.57;;;9.57;;
11791;SDS011;5953;52.372;9.918;2023-04-06T02:37:47;9.77;;;8.73;;
11791;SDS011;5953;52.372;9.918;2023-04-06T02:40:14;11.57;;;8.60;;
11791;SDS011;5953;52.372;9.918;2023-04-06T02:42:42;11.07;;;8.93;;
11791;SDS011;5953;52.372;9.918;2023-04-06T02:45:10;11.23;;;8.77;;
11791;SDS011;5953;52.372;9.918;2023-04-06T02:47:38;9.73;;;8.53;;
11791;SDS011;5953;52.372;9.918;2023-04-06T02:50:08;9.20;;;8.30;;
11791;SDS011;5953;52.372;9.918;2023-04-06T02:52:36;9.33;;;8.37;;
11791;SDS011;5953;52.372;9.918;2023-04-06T02:55:04;11.03;;;8.70;;
11791;SDS011;5953;52.372;9.918;2023-04-06T02:57:33;12.80;;;9.17;;
11791;SDS011;5953;52.372;9.918;2023-04-06T03:00:02;10.17;;;9.10;;
11791;SDS011;5953;52.372;9.918;2023-04-06T03:02:30;12.07;;;9.50;;
11791;SDS011;5953;52.372;9.918;2023-04-06T03:04:58;13.07;;;8.83;;
11791;SDS011;5953;52.372;9.918;2023-04-06T03:07:27;12.03;;;8.70;;
11791;SDS011;5953;52.372;9.918;2023-04-06T03:09:55;10.90;;;8.60;;
11791;SDS011;5953;52.372;9.918;2023-04-06T03:12:23;13.20;;;8.53;;
11791;SDS011;5953;52.372;9.918;2023-04-06T03:14:51;9.93;;;8.13;;
11791;SDS011;5953;52.372;9.918;2023-04-06T03:17:19;9.47;;;8.37;;
11791;SDS011;5953;52.372;9.918;2023-04-06T03:19:47;10.83;;;8.63;;
11791;SDS011;5953;52.372;9.918;2023-04-06T03:22:15;8.83;;;7.50;;
11791;SDS011;5953;52.372;9.918;2023-04-06T03:24:44;10.00;;;7.87;;
11791;SDS011;5953;52.372;9.918;2023-04-06T03:27:12;8.67;;;6.97;;
11791;SDS011;5953;52.372;9.918;2023-04-06T03:29:39;8.27;;;7.00;;
11791;SDS011;5953;52.372;9.918;2023-04-06T03:32:07;8.00;;;6.57;;
11791;SDS011;5953;52.372;9.918;2023-04-06T03:34:37;10.47;;;7.57;;
11791;SDS011;5953;52.372;9.918;2023-04-06T03:37:05;8.67;;;6.97;;
11791;SDS011;5953;52.372;9.918;2023-04-06T03:39:36;8.20;;;6.63;;
11791;SDS011;5953;52.372;9.918;2023-04-06T03:42:05;8.83;;;6.43;;
11791;SDS011;5953;52.372;9.918;2023-04-06T03:44:33;11.00;;;6.40;;
11791;SDS011;5953;52.372;9.918;2023-04-06T03:47:01;9.20;;;6.47;;
11791;SDS011;5953;52.372;9.918;2023-04-06T03:49:29;8.00;;;6.27;;
11791;SDS011;5953;52.372;9.918;2023-04-06T03:51:57;8.67;;;6.13;;
11791;SDS011;5953;52.372;9.918;2023-04-06T03:54:25;7.63;;;6.57;;
11791;SDS011;5953;52.372;9.918;2023-04-06T03:56:52;9.23;;;7.07;;
11791;SDS011;5953;52.372;9.918;2023-04-06T03:59:22;8.00;;;6.80;;
11791;SDS011;5953;52.372;9.918;2023-04-06T04:01:50;9.07;;;6.83;;
11791;SDS011;5953;52.372;9.918;2023-04-06T04:04:18;6.83;;;5.43;;
11791;SDS011;5953;52.372;9.918;2023-04-06T04:06:46;7.97;;;6.17;;
11791;SDS011;5953;52.372;9.918;2023-04-06T04:09:14;8.33;;;5.87;;
11791;SDS011;5953;52.372;9.918;2023-04-06T04:11:42;7.40;;;5.73;;
11791;SDS011;5953;52.372;9.918;2023-04-06T04:14:10;7.60;;;6.20;;
11791;SDS011;5953;52.372;9.918;2023-04-06T04:16:39;10.93;;;6.67;;
11791;SDS011;5953;52.372;9.918;2023-04-06T04:19:08;10.83;;;5.63;;
11791;SDS011;5953;52.372;9.918;2023-04-06T04:21:41;9.17;;;6.10;;
11791;SDS011;5953;52.372;9.918;2023-04-06T04:24:11;8.07;;;6.40;;
11791;SDS011;5953;52.372;9.918;2023-04-06T04:26:39;9.00;;;6.20;;
11791;SDS011;5953;52.372;9.918;2023-04-06T04:29:07;9.20;;;6.30;;
11791;SDS011;5953;52.372;9.918;2023-04-06T04:31:36;8.30;;;5.77;;
11791;SDS011;5953;52.372;9.918;2023-04-06T04:34:05;7.77;;;5.90;;
11791;SDS011;5953;52.372;9.918;2023-04-06T04:36:34;9.53;;;6.50;;
11791;SDS011;5953;52.372;9.918;2023-04-06T04:39:01;8.67;;;6.53;;
11791;SDS011;5953;52.372;9.918;2023-04-06T04:41:29;7.03;;;5.27;;
11791;SDS011;5953;52.372;9.918;2023-04-06T04:43:57;9.97;;;5.83;;
11791;SDS011;5953;52.372;9.918;2023-04-06T04:46:25;8.30;;;6.57;;
11791;SDS011;5953;52.372;9.918;2023-04-06T04:48:53;10.33;;;5.87;;
11791;SDS011;5953;52.372;9.918;2023-04-06T04:51:22;8.03;;;6.20;;
11791;SDS011;5953;52.372;9.918;2023-04-06T04:53:51;6.27;;;5.67;;
11791;SDS011;5953;52.372;9.918;2023-04-06T04:56:18;8.03;;;6.20;;
11791;SDS011;5953;52.372;9.918;2023-04-06T04:58:46;7.87;;;6.23;;
11791;SDS011;5953;52.372;9.918;2023-04-06T05:01:14;10.57;;;6.07;;
11791;SDS011;5953;52.372;9.918;2023-04-06T05:03:42;9.03;;;6.00;;
11791;SDS011;5953;52.372;9.918;2023-04-06T05:06:10;10.13;;;6.43;;
11791;SDS011;5953;52.372;9.918;2023-04-06T05:08:40;7.70;;;5.87;;
11791;SDS011;5953;52.372;9.918;2023-04-06T05:11:08;7.87;;;6.27;;
11791;SDS011;5953;52.372;9.918;2023-04-06T05:13:36;10.07;;;5.90;;
11791;SDS011;5953;52.372;9.918;2023-04-06T05:16:04;9.80;;;6.97;;
11791;SDS011;5953;52.372;9.918;2023-04-06T05:18:32;9.13;;;6.30;;
11791;SDS011;5953;52.372;9.918;2023-04-06T05:21:00;8.83;;;5.50;;
11791;SDS011;5953;52.372;9.918;2023-04-06T05:23:28;7.93;;;5.90;;
11791;SDS011;5953;52.372;9.918;2023-04-06T05:25:57;10.57;;;6.17;;
11791;SDS011;5953;52.372;9.918;2023-04-06T05:28:25;12.90;;;6.10;;
11791;SDS011;5953;52.372;9.918;2023-04-06T05:30:53;8.33;;;6.10;;
11791;SDS011;5953;52.372;9.918;2023-04-06T05:33:21;7.93;;;5.57;;
11791;SDS011;5953;52.372;9.918;2023-04-06T05:35:49;8.10;;;6.00;;
11791;SDS011;5953;52.372;9.918;2023-04-06T05:38:16;9.57;;;6.00;;
11791;SDS011;5953;52.372;9.918;2023-04-06T05:40:44;9.77;;;6.30;;
11791;SDS011;5953;52.372;9.918;2023-04-06T05:43:13;9.27;;;6.27;;
11791;SDS011;5953;52.372;9.918;2023-04-06T05:45:43;13.07;;;5.73;;
11791;SDS011;5953;52.372;9.918;2023-04-06T05:48:11;10.10;;;5.37;;
11791;SDS011;5953;52.372;9.918;2023-04-06T05:50:40;7.80;;;6.20;;
11791;SDS011;5953;52.372;9.918;2023-04-06T05:53:08;9.07;;;6.33;;
11791;SDS011;5953;52.372;9.918;2023-04-06T05:55:36;7.57;;;6.13;;
11791;SDS011;5953;52.372;9.918;2023-04-06T05:58:03;11.37;;;6.73;;
11791;SDS011;5953;52.372;9.918;2023-04-06T06:00:33;11.00;;;7.20;;
11791;SDS011;5953;52.372;9.918;2023-04-06T06:03:01;7.43;;;5.67;;
11791;SDS011;5953;52.372;9.918;2023-04-06T06:05:30;7.43;;;6.00;;
11791;SDS011;5953;52.372;9.918;2023-04-06T06:07:58;7.67;;;5.33;;
11791;SDS011;5953;52.372;9.918;2023-04-06T06:10:28;12.00;;;5.47;;
11791;SDS011;5953;52.372;9.918;2023-04-06T06:12:56;9.80;;;6.07;;
11791;SDS011;5953;52.372;9.918;2023-04-06T06:15:24;14.37;;;6.17;;
11791;SDS011;5953;52.372;9.918;2023-04-06T06:17:53;8.30;;;5.73;;
11791;SDS011;5953;52.372;9.918;2023-04-06T06:20:21;9.60;;;5.80;;
11791;SDS011;5953;52.372;9.918;2023-04-06T06:22:49;8.97;;;5.97;;
11791;SDS011;5953;52.372;9.918;2023-04-06T06:25:17;7.93;;;5.13;;
11791;SDS011;5953;52.372;9.918;2023-04-06T06:27:45;6.83;;;5.20;;
11791;SDS011;5953;52.372;9.918;2023-04-06T06:30:13;6.97;;;5.50;;
11791;SDS011;5953;52.372;9.918;2023-04-06T06:32:41;6.53;;;5.60;;
11791;SDS011;5953;52.372;9.918;2023-04-06T06:35:10;7.30;;;5.63;;
11791;SDS011;5953;52.372;9.918;2023-04-06T06:37:38;6.77;;;5.53;;
11791;SDS011;5953;52.372;9.918;2023-04-06T06:40:06;10.53;;;6.43;;
11791;SDS011;5953;52.372;9.918;2023-04-06T06:42:36;8.17;;;6.23;;
11791;SDS011;5953;52.372;9.918;2023-04-06T06:45:04;5.43;;;4.93;;
11791;SDS011;5953;52.372;9.918;2023-04-06T06:47:34;7.73;;;5.17;;
11791;SDS011;5953;52.372;9.918;2023-04-06T06:50:02;6.37;;;5.00;;
11791;SDS011;5953;52.372;9.918;2023-04-06T06:52:32;8.97;;;5.07;;
11791;SDS011;5953;52.372;9.918;2023-04-06T06:54:59;7.33;;;5.20;;
11791;SDS011;5953;52.372;9.918;2023-04-06T06:57:27;6.70;;;5.47;;
11791;SDS011;5953;52.372;9.918;2023-04-06T06:59:56;6.93;;;5.20;;
11791;SDS011;5953;52.372;9.918;2023-04-06T07:02:26;7.97;;;6.10;;
11791;SDS011;5953;52.372;9.918;2023-04-06T07:04:54;6.50;;;5.40;;
11791;SDS011;5953;52.372;9.918;2023-04-06T07:07:22;7.50;;;5.70;;
11791;SDS011;5953;52.372;9.918;2023-04-06T07:09:51;9.63;;;5.60;;
11791;SDS011;5953;52.372;9.918;2023-04-06T07:12:19;6.10;;;4.60;;
11791;SDS011;5953;52.372;9.918;2023-04-06T07:14:47;7.17;;;5.27;;
11791;SDS011;5953;52.372;9.918;2023-04-06T07:17:15;8.17;;;5.10;;
11791;SDS011;5953;52.372;9.918;2023-04-06T07:19:42;8.60;;;5.50;;
11791;SDS011;5953;52.372;9.918;2023-04-06T07:22:11;8.33;;;5.50;;
11791;SDS011;5953;52.372;9.918;2023-04-06T07:24:39;3.13;;;2.77;;
11791;SDS011;5953;52.372;9.918;2023-04-06T07:27:09;5.93;;;4.50;;
11791;SDS011;5953;52.372;9.918;2023-04-06T07:29:37;7.23;;;5.40;;
11791;SDS011;5953;52.372;9.918;2023-04-06T07:32:05;5.90;;;4.73;;
11791;SDS011;5953;52.372;9.918;2023-04-06T07:34:33;8.67;;;5.60;;
11791;SDS011;5953;52.372;9.918;2023-04-06T07:37:01;7.00;;;5.17;;
11791;SDS011;5953;52.372;9.918;2023-04-06T07:39:29;7.67;;;4.97;;
11791;SDS011;5953;52.372;9.918;2023-04-06T07:41:57;6.20;;;4.87;;
11791;SDS011;5953;52.372;9.918;2023-04-06T07:44:26;7.57;;;5.60;;
11791;SDS011;5953;52.372;9.918;2023-04-06T07:46:54;7.90;;;4.90;;
11791;SDS011;5953;52.372;9.918;2023-04-06T07:49:23;5.10;;;4.23;;
11791;SDS011;5953;52.372;9.918;2023-04-06T07:51:51;6.57;;;5.50;;
11791;SDS011;5953;52.372;9.918;2023-04-06T07:54:19;7.87;;;4.93;;
11791;SDS011;5953;52.372;9.918;2023-04-06T07:56:47;4.03;;;3.10;;
11791;SDS011;5953;52.372;9.918;2023-04-06T07:59:15;7.17;;;5.20;;
11791;SDS011;5953;52.372;9.918;2023-04-06T08:01:44;5.97;;;5.37;;
11791;SDS011;5953;52.372;9.918;2023-04-06T08:04:12;7.13;;;5.30;;
11791;SDS011;5953;52.372;9.918;2023-04-06T08:06:40;6.30;;;5.60;;
11791;SDS011;5953;52.372;9.918;2023-04-06T08:09:08;8.67;;;4.83;;
11791;SDS011;5953;52.372;9.918;2023-04-06T08:11:36;6.90;;;5.03;;
11791;SDS011;5953;52.372;9.918;2023-04-06T08:14:03;6.33;;;5.40;;
11791;SDS011;5953;52.372;9.918;2023-04-06T08:16:31;9.50;;;5.50;;
11791;SDS011;5953;52.372;9.918;2023-04-06T08:19:01;6.37;;;5.00;;
11791;SDS011;5953;52.372;9.918;2023-04-06T08:21:29;7.10;;;5.47;;
11791;SDS011;5953;52.372;9.918;2023-04-06T08:23:56;6.27;;;5.63;;
11791;SDS011;5953;52.372;9.918;2023-04-06T08:26:25;9.13;;;3.80;;
11791;SDS011;5953;52.372;9.918;2023-04-06T08:28:53;7.03;;;5.33;;
11791;SDS011;5953;52.372;9.918;2023-04-06T08:31:21;6.33;;;4.30;;
11791;SDS011;5953;52.372;9.918;2023-04-06T08:33:49;6.40;;;5.43;;
11791;SDS011;5953;52.372;9.918;2023-04-06T08:36:19;6.10;;;4.97;;
11791;SDS011;5953;52.372;9.918;2023-04-06T08:38:49;7.03;;;4.83;;
11791;SDS011;5953;52.372;9.918;2023-04-06T08:41:17;7.20;;;5.57;;
11791;SDS011;5953;52.372;9.918;2023-04-06T08:43:46;8.27;;;4.73;;
11791;SDS011;5953;52.372;9.918;2023-04-06T08:46:17;6.20;;;4.80;;
11791;SDS011;5953;52.372;9.918;2023-04-06T08:48:45;6.03;;;4.40;;
11791;SDS011;5953;52.372;9.918;2023-04-06T08:51:16;6.10;;;5.50;;
11791;SDS011;5953;52.372;9.918;2023-04-06T08:53:46;8.43;;;5.97;;
11791;SDS011;5953;52.372;9.918;2023-04-06T08:56:16;7.00;;;5.03;;
11791;SDS011;5953;52.372;9.918;2023-04-06T08:58:44;5.97;;;5.00;;
11791;SDS011;5953;52.372;9.918;2023-04-06T09:01:12;5.10;;;3.60;;
11791;SDS011;5953;52.372;9.918;2023-04-06T09:03:42;8.43;;;5.57;;
11791;SDS011;5953;52.372;9.918;2023-04-06T09:06:11;6.63;;;5.07;;
11791;SDS011;5953;52.372;9.918;2023-04-06T09:08:42;6.00;;;4.70;;
11791;SDS011;5953;52.372;9.918;2023-04-06T09:11:10;6.37;;;5.43;;
11791;SDS011;5953;52.372;9.918;2023-04-06T09:13:44;7.90;;;5.43;;
11791;SDS011;5953;52.372;9.918;2023-04-06T09:16:13;7.13;;;5.50;;
11791;SDS011;5953;52.372;9.918;2023-04-06T09:18:42;8.00;;;4.90;;
11791;SDS011;5953;52.372;9.918;2023-04-06T09:21:10;8.30;;;5.70;;
11791;SDS011;5953;52.372;9.918;2023-04-06T09:23:39;6.20;;;5.57;;
11791;SDS011;5953;52.372;9.918;2023-04-06T09:26:10;6.20;;;5.60;;
11791;SDS011;5953;52.372;9.918;2023-04-06T09:28:46;6.53;;;5.90;;
11791;SDS011;5953;52.372;9.918;2023-04-06T09:31:16;9.27;;;5.90;;
11791;SDS011;5953;52.372;9.918;2023-04-06T09:33:50;9.87;;;4.73;;
11791;SDS011;5953;52.372;9.918;2023-04-06T09:36:19;6.73;;;5.90;;
11791;SDS011;5953;52.372;9.918;2023-04-06T09:38:57;7.07;;;6.20;;
11791;SDS011;5953;52.372;9.918;2023-04-06T09:41:28;4.37;;;3.80;;
11791;SDS011;5953;52.372;9.918;2023-04-06T09:44:04;4.80;;;3.93;;
11791;SDS011;5953;52.372;9.918;2023-04-06T09:46:33;8.63;;;4.90;;
11791;SDS011;5953;52.372;9.918;2023-04-06T09:49:20;8.13;;;5.50;;
11791;SDS011;5953;52.372;9.918;2023-04-06T09:51:52;8.40;;;5.73;;
11791;SDS011;5953;52.372;9.918;2023-04-06T09:54:23;6.10;;;5.43;;
11791;SDS011;5953;52.372;9.918;2023-04-06T09:56:56;7.40;;;5.97;;
11791;SDS011;5953;52.372;9.918;2023-04-06T09:59:29;7.10;;;5.17;;
11791;SDS011;5953;52.372;9.918;2023-04-06T10:02:05;7.50;;;6.37;;
11791;SDS011;5953;52.372;9.918;2023-04-06T10:04:41;8.37;;;5.97;;
11791;SDS011;5953;52.372;9.918;2023-04-06T10:07:12;6.10;;;5.03;;
11791;SDS011;5953;52.372;9.918;2023-04-06T10:09:41;6.67;;;5.53;;
11791;SDS011;5953;52.372;9.918;2023-04-06T10:12:14;8.03;;;5.73;;
11791;SDS011;5953;52.372;9.918;2023-04-06T10:14:43;8.93;;;5.80;;
11791;SDS011;5953;52.372;9.918;2023-04-06T10:17:12;7.17;;;6.07;;
11791;SDS011;5953;52.372;9.918;2023-04-06T10:19:44;7.53;;;4.00;;
11791;SDS011;5953;52.372;9.918;2023-04-06T10:22:26;7.40;;;4.80;;
11791;SDS011;5953;52.372;9.918;2023-04-06T10:25:00;9.83;;;6.93;;
11791;SDS011;5953;52.372;9.918;2023-04-06T10:27:30;7.40;;;5.07;;
11791;SDS011;5953;52.372;9.918;2023-04-06T10:30:01;10.53;;;4.93;;
11791;SDS011;5953;52.372;9.918;2023-04-06T10:32:34;9.20;;;5.53;;
11791;SDS011;5953;52.372;9.918;2023-04-06T10:35:07;8.23;;;6.13;;
11791;SDS011;5953;52.372;9.918;2023-04-06T10:37:49;8.90;;;6.17;;
11791;SDS011;5953;52.372;9.918;2023-04-06T10:40:19;7.47;;;6.20;;
11791;SDS011;5953;52.372;9.918;2023-04-06T10:42:54;7.80;;;5.33;;
11791;SDS011;5953;52.372;9.918;2023-04-06T10:45:24;8.10;;;6.70;;
11791;SDS011;5953;52.372;9.918;2023-04-06T10:47:53;7.33;;;6.63;;
11791;SDS011;5953;52.372;9.918;2023-04-06T10:50:22;7.73;;;5.93;;
11791;SDS011;5953;52.372;9.918;2023-04-06T10:53:00;9.97;;;6.50;;
11791;SDS011;5953;52.372;9.918;2023-04-06T10:55:29;8.37;;;7.10;;
11791;SDS011;5953;52.372;9.918;2023-04-06T10:57:59;6.90;;;5.87;;
11791;SDS011;5953;52.372;9.918;2023-04-06T11:00:27;8.73;;;6.53;;
11791;SDS011;5953;52.372;9.918;2023-04-06T11:03:14;10.90;;;6.63;;
11791;SDS011;5953;52.372;9.918;2023-04-06T11:05:43;6.30;;;5.70;;
11791;SDS011;5953;52.372;9.918;2023-04-06T11:08:21;7.50;;;6.03;;
11791;SDS011;5953;52.372;9.918;2023-04-06T11:10:50;6.73;;;5.37;;
11791;SDS011;5953;52.372;9.918;2023-04-06T11:13:19;8.83;;;5.60;;
11791;SDS011;5953;52.372;9.918;2023-04-06T11:15:47;6.63;;;5.43;;
11791;SDS011;5953;52.372;9.918;2023-04-06T11:18:17;7.67;;;6.37;;
11791;SDS011;5953;52.372;9.918;2023-04-06T11:20:47;8.63;;;6.20;;
11791;SDS011;5953;52.372;9.918;2023-04-06T11:23:21;9.63;;;5.80;;
11791;SDS011;5953;52.372;9.918;2023-04-06T11:25:50;6.50;;;5.90;;
11791;SDS011;5953;52.372;9.918;2023-04-06T11:28:20;7.50;;;6.47;;
11791;SDS011;5953;52.372;9.918;2023-04-06T11:30:48;8.17;;;6.27;;
11791;SDS011;5953;52.372;9.918;2023-04-06T11:33:20;7.47;;;5.50;;
11791;SDS011;5953;52.372;9.918;2023-04-06T11:35:49;8.57;;;6.03;;
11791;SDS011;5953;52.372;9.918;2023-04-06T11:38:17;8.60;;;5.27;;
11791;SDS011;5953;52.372;9.918;2023-04-06T11:40:47;7.33;;;5.70;;
11791;SDS011;5953;52.372;9.918;2023-04-06T11:43:27;8.03;;;5.80;;
11791;SDS011;5953;52.372;9.918;2023-04-06T11:46:01;6.93;;;5.77;;
11791;SDS011;5953;52.372;9.918;2023-04-06T11:48:30;6.80;;;6.03;;
11791;SDS011;5953;52.372;9.918;2023-04-06T11:50:58;9.47;;;6.67;;
11791;SDS011;5953;52.372;9.918;2023-04-06T11:53:27;11.03;;;6.70;;
11791;SDS011;5953;52.372;9.918;2023-04-06T11:55:55;8.67;;;6.27;;
11791;SDS011;5953;52.372;9.918;2023-04-06T11:58:24;8.30;;;6.30;;
11791;SDS011;5953;52.372;9.918;2023-04-06T12:00:54;7.53;;;6.83;;
11791;SDS011;5953;52.372;9.918;2023-04-06T12:03:30;10.57;;;7.00;;
11791;SDS011;5953;52.372;9.918;2023-04-06T12:05:58;9.80;;;6.90;;
11791;SDS011;5953;52.372;9.918;2023-04-06T12:08:27;8.03;;;6.73;;
11791;SDS011;5953;52.372;9.918;2023-04-06T12:10:55;11.20;;;6.93;;
11791;SDS011;5953;52.372;9.918;2023-04-06T12:13:23;10.47;;;6.57;;
11791;SDS011;5953;52.372;9.918;2023-04-06T12:15:51;7.90;;;7.10;;
11791;SDS011;5953;52.372;9.918;2023-04-06T12:18:20;10.10;;;4.90;;
11791;SDS011;5953;52.372;9.918;2023-04-06T12:20:48;8.63;;;6.80;;
11791;SDS011;5953;52.372;9.918;2023-04-06T12:23:16;10.33;;;7.67;;
11791;SDS011;5953;52.372;9.918;2023-04-06T12:25:44;8.30;;;6.83;;
11791;SDS011;5953;52.372;9.918;2023-04-06T12:28:12;8.03;;;7.20;;
11791;SDS011;5953;52.372;9.918;2023-04-06T12:30:40;8.00;;;7.20;;
11791;SDS011;5953;52.372;9.918;2023-04-06T12:33:08;8.90;;;6.50;;
11791;SDS011;5953;52.372;9.918;2023-04-06T12:35:37;8.17;;;6.57;;
11791;SDS011;5953;52.372;9.918;2023-04-06T12:38:06;8.77;;;6.83;;
11791;SDS011;5953;52.372;9.918;2023-04-06T12:40:36;7.80;;;7.00;;
11791;SDS011;5953;52.372;9.918;2023-04-06T12:43:04;7.53;;;6.57;;
11791;SDS011;5953;52.372;9.918;2023-04-06T12:45:32;8.73;;;7.30;;
11791;SDS011;5953;52.372;9.918;2023-04-06T12:48:00;7.90;;;6.70;;
11791;SDS011;5953;52.372;9.918;2023-04-06T12:50:28;7.90;;;6.73;;
11791;SDS011;5953;52.372;9.918;2023-04-06T12:52:57;8.10;;;6.33;;
11791;SDS011;5953;52.372;9.918;2023-04-06T12:55:25;7.30;;;5.97;;
11791;SDS011;5953;52.372;9.918;2023-04-06T12:57:56;7.60;;;6.50;;
11791;SDS011;5953;52.372;9.918;2023-04-06T13:00:24;10.70;;;6.63;;
11791;SDS011;5953;52.372;9.918;2023-04-06T13:02:52;8.47;;;7.23;;
11791;SDS011;5953;52.372;9.918;2023-04-06T13:05:20;8.27;;;7.00;;
11791;SDS011;5953;52.372;9.918;2023-04-06T13:07:48;11.17;;;8.20;;
11791;SDS011;5953;52.372;9.918;2023-04-06T13:10:17;9.03;;;7.30;;
11791;SDS011;5953;52.372;9.918;2023-04-06T13:12:45;11.03;;;7.83;;
11791;SDS011;5953;52.372;9.918;2023-04-06T13:15:13;10.23;;;7.37;;
11791;SDS011;5953;52.372;9.918;2023-04-06T13:17:41;9.37;;;8.00;;
11791;SDS011;5953;52.372;9.918;2023-04-06T13:20:09;10.17;;;8.10;;
11791;SDS011;5953;52.372;9.918;2023-04-06T13:22:37;8.80;;;7.30;;
11791;SDS011;5953;52.372;9.918;2023-04-06T13:25:05;10.77;;;7.63;;
11791;SDS011;5953;52.372;9.918;2023-04-06T13:27:35;8.80;;;7.90;;
11791;SDS011;5953;52.372;9.918;2023-04-06T13:30:03;9.20;;;7.80;;
11791;SDS011;5953;52.372;9.918;2023-04-06T13:32:32;8.30;;;7.30;;
11791;SDS011;5953;52.372;9.918;2023-04-06T13:35:01;9.10;;;8.20;;
11791;SDS011;5953;52.372;9.918;2023-04-06T13:37:30;8.40;;;7.47;;
11791;SDS011;5953;52.372;9.918;2023-04-06T13:39:58;7.97;;;7.17;;
11791;SDS011;5953;52.372;9.918;2023-04-06T13:42:26;9.47;;;6.97;;
11791;SDS011;5953;52.372;9.918;2023-04-06T13:44:56;11.30;;;8.93;;
11791;SDS011;5953;52.372;9.918;2023-04-06T13:47:24;10.83;;;8.60;;
11791;SDS011;5953;52.372;9.918;2023-04-06T13:49:53;9.20;;;8.13;;
11791;SDS011;5953;52.372;9.918;2023-04-06T13:52:21;9.53;;;7.63;;
11791;SDS011;5953;52.372;9.918;2023-04-06T13:54:49;11.10;;;8.37;;
11791;SDS011;5953;52.372;9.918;2023-04-06T13:57:18;9.97;;;8.30;;
11791;SDS011;5953;52.372;9.918;2023-04-06T13:59:46;9.30;;;8.20;;
11791;SDS011;5953;52.372;9.918;2023-04-06T14:02:17;8.83;;;7.77;;
11791;SDS011;5953;52.372;9.918;2023-04-06T14:04:46;8.63;;;7.20;;
11791;SDS011;5953;52.372;9.918;2023-04-06T14:07:13;8.23;;;6.57;;
11791;SDS011;5953;52.372;9.918;2023-04-06T14:09:41;8.00;;;6.97;;
11791;SDS011;5953;52.372;9.918;2023-04-06T14:12:09;8.57;;;7.67;;
11791;SDS011;5953;52.372;9.918;2023-04-06T14:14:37;10.03;;;7.43;;
11791;SDS011;5953;52.372;9.918;2023-04-06T14:17:05;8.47;;;7.10;;
11791;SDS011;5953;52.372;9.918;2023-04-06T14:19:34;8.73;;;7.50;;
11791;SDS011;5953;52.372;9.918;2023-04-06T14:22:02;11.67;;;7.50;;
11791;SDS011;5953;52.372;9.918;2023-04-06T14:24:30;10.57;;;9.47;;
11791;SDS011;5953;52.372;9.918;2023-04-06T14:26:59;9.40;;;7.80;;
11791;SDS011;5953;52.372;9.918;2023-04-06T14:29:27;8.17;;;6.87;;
11791;SDS011;5953;52.372;9.918;2023-04-06T14:31:55;8.63;;;6.37;;
11791;SDS011;5953;52.372;9.918;2023-04-06T14:34:26;9.20;;;7.33;;
11791;SDS011;5953;52.372;9.918;2023-04-06T14:36:55;8.80;;;7.23;;
11791;SDS011;5953;52.372;9.918;2023-04-06T14:39:23;9.07;;;6.93;;
11791;SDS011;5953;52.372;9.918;2023-04-06T14:41:51;9.40;;;6.40;;
11791;SDS011;5953;52.372;9.918;2023-04-06T14:44:19;8.33;;;7.37;;
11791;SDS011;5953;52.372;9.918;2023-04-06T14:46:47;8.67;;;6.47;;
11791;SDS011;5953;52.372;9.918;2023-04-06T14:49:14;10.23;;;8.20;;
11791;SDS011;5953;52.372;9.918;2023-04-06T14:51:42;9.30;;;7.43;;
11791;SDS011;5953;52.372;9.918;2023-04-06T14:54:11;9.03;;;7.40;;
11791;SDS011;5953;52.372;9.918;2023-04-06T14:56:39;9.50;;;7.60;;
11791;SDS011;5953;52.372;9.918;2023-04-06T14:59:08;9.57;;;6.27;;
11791;SDS011;5953;52.372;9.918;2023-04-06T15:01:36;8.80;;;7.00;;
11791;SDS011;5953;52.372;9.918;2023-04-06T15:04:04;8.83;;;6.00;;
11791;SDS011;5953;52.372;9.918;2023-04-06T15:06:33;7.73;;;6.00;;
11791;SDS011;5953;52.372;9.918;2023-04-06T15:09:01;9.43;;;6.63;;